Time;durP1;ratioP1;P1;durP2;ratioP2;P2;SDS_P1;SDS_P2;PMS_P1;PMS_P2;Temp;Humidity;BMP_temperature;BMP_pressure;BME280_temperature;BME280_humidity;BME280_pressure;Samples;Min_cycle;Max_cycle;Signal;HPM_P1;HPM_P2
2022/05/21 00:02:09;;;;;;;;;;;15.10;99.90;;;;;;5054814;28;19916;-67
2022/05/21 00:04:36;;;;;;;;;;;15.00;99.90;;;;;;5054683;28;19908;-67
2022/05/21 00:07:02;;;;;;;;;;;15.00;99.90;;;;;;5054874;28;19964;-67
2022/05/21 00:09:28;;;;;;;;;;;14.80;99.90;;;;;;5054660;28;20020;-68
2022/05/21 00:11:54;;;;;;;;;;;14.80;99.90;;;;;;5053070;28;19920;-68
2022/05/21 00:14:20;;;;;;;;;;;14.90;99.90;;;;;;5067047;28;19919;-67
2022/05/21 00:16:46;;;;;;;;;;;15.00;99.90;;;;;;5074465;28;20381;-68
2022/05/21 00:19:11;;;;;;;;;;;15.10;99.90;;;;;;5074166;28;19935;-67
2022/05/21 00:21:37;;;;;;;;;;;14.80;99.90;;;;;;5074310;28;19908;-67
2022/05/21 00:24:03;;;;;;;;;;;14.90;99.90;;;;;;5074459;28;19961;-68
2022/05/21 00:26:28;;;;;;;;;;;14.90;99.90;;;;;;5073031;28;19954;-68
2022/05/21 00:28:54;;;;;;;;;;;14.80;99.90;;;;;;5074109;28;19916;-68
2022/05/21 00:31:19;;;;;;;;;;;14.70;99.90;;;;;;5073802;28;19913;-68
2022/05/21 00:33:45;;;;;;;;;;;14.70;99.90;;;;;;5069955;28;20366;-68
2022/05/21 00:36:11;;;;;;;;;;;14.80;99.90;;;;;;5058249;28;19921;-67
2022/05/21 00:38:37;;;;;;;;;;;14.80;99.90;;;;;;5067347;28;20647;-68
2022/05/21 00:41:03;;;;;;;;;;;14.80;99.90;;;;;;5053751;28;19917;-67
2022/05/21 00:43:49;;;;;;;;;;;14.70;99.90;;;;;;5054321;28;20010;-68
2022/05/21 00:46:15;;;;;;;;;;;14.70;99.90;;;;;;5054438;28;19962;-68
2022/05/21 00:48:41;;;;;;;;;;;14.60;99.90;;;;;;5054469;28;19913;-68
2022/05/21 00:51:08;;;;;;;;;;;14.60;99.90;;;;;;5053876;28;19999;-68
2022/05/21 00:53:34;;;;;;;;;;;14.70;99.90;;;;;;5069564;28;19966;-67
2022/05/21 00:55:59;;;;;;;;;;;14.70;99.90;;;;;;5053619;28;19908;-68
2022/05/21 01:01:12;;;;;;;;;;;14.80;99.90;;;;;;5054070;28;20008;-68
2022/05/21 01:03:38;;;;;;;;;;;14.80;99.90;;;;;;5054226;28;19956;-68
2022/05/21 01:06:03;;;;;;;;;;;14.60;99.90;;;;;;5054085;28;19916;-68
2022/05/21 01:08:29;;;;;;;;;;;14.60;99.90;;;;;;5054060;28;19940;-68
2022/05/21 01:10:57;;;;;;;;;;;14.50;99.90;;;;;;5053809;28;20305;-67
2022/05/21 01:13:25;;;;;;;;;;;14.40;99.90;;;;;;5064014;28;19916;-67
2022/05/21 01:15:53;;;;;;;;;;;14.30;99.90;;;;;;5072977;28;19956;-67
2022/05/21 01:18:19;;;;;;;;;;;14.30;99.90;;;;;;5073233;28;19916;-68
2022/05/21 01:20:47;;;;;;;;;;;14.40;99.90;;;;;;5072971;28;19969;-68
2022/05/21 01:23:14;;;;;;;;;;;14.50;99.90;;;;;;5073211;28;19967;-67
2022/05/21 01:25:40;;;;;;;;;;;14.30;99.90;;;;;;5073252;28;19908;-67
2022/05/21 01:28:11;;;;;;;;;;;14.40;99.90;;;;;;5073108;28;19908;-69
2022/05/21 01:30:38;;;;;;;;;;;14.40;99.90;;;;;;5072734;28;19917;-67
2022/05/21 01:33:05;;;;;;;;;;;14.40;99.90;;;;;;5062117;28;19952;-68
2022/05/21 01:35:31;;;;;;;;;;;14.30;99.90;;;;;;5053119;28;20285;-68
2022/05/21 01:37:56;;;;;;;;;;;14.40;99.90;;;;;;5052873;28;19913;-68
2022/05/21 01:40:22;;;;;;;;;;;14.30;99.90;;;;;;5052593;28;20425;-68
2022/05/21 01:45:31;;;;;;;;;;;14.00;99.90;;;;;;5052409;28;20282;-68
2022/05/21 01:47:57;;;;;;;;;;;14.00;99.90;;;;;;5053692;28;19912;-69
2022/05/21 01:50:22;;;;;;;;;;;13.80;99.90;;;;;;5052357;28;19916;-68
2022/05/21 01:52:48;;;;;;;;;;;13.90;99.90;;;;;;5052636;28;19909;-67
2022/05/21 01:55:13;;;;;;;;;;;13.90;99.90;;;;;;5052695;28;20063;-68
2022/05/21 01:57:38;;;;;;;;;;;14.00;99.90;;;;;;5052463;28;19960;-68
2022/05/21 02:00:05;;;;;;;;;;;14.10;99.90;;;;;;5052095;28;20385;-68
2022/05/21 02:02:30;;;;;;;;;;;14.10;99.90;;;;;;5053430;28;19939;-68
2022/05/21 02:04:56;;;;;;;;;;;14.10;99.90;;;;;;5052474;28;19909;-68
2022/05/21 02:07:21;;;;;;;;;;;14.00;99.90;;;;;;5052391;28;19913;-68
2022/05/21 02:09:46;;;;;;;;;;;13.90;99.90;;;;;;5052124;28;19916;-67
2022/05/21 02:12:15;;;;;;;;;;;14.00;99.90;;;;;;5052220;28;19924;-69
2022/05/21 02:14:41;;;;;;;;;;;14.10;99.90;;;;;;5052119;28;19913;-68
2022/05/21 02:17:06;;;;;;;;;;;14.00;99.90;;;;;;5052265;28;19921;-68
2022/05/21 02:19:33;;;;;;;;;;;14.00;99.90;;;;;;5069565;28;19912;-68
2022/05/21 02:21:58;;;;;;;;;;;13.90;99.90;;;;;;5072151;28;20596;-69
2022/05/21 02:24:24;;;;;;;;;;;14.00;99.90;;;;;;5072418;28;19908;-68
2022/05/21 02:26:49;;;;;;;;;;;14.00;99.90;;;;;;5072121;28;20007;-68
2022/05/21 02:29:14;;;;;;;;;;;14.10;99.90;;;;;;5071948;28;19909;-68
2022/05/21 02:31:40;;;;;;;;;;;14.10;99.90;;;;;;5072201;28;20439;-68
2022/05/21 02:34:05;;;;;;;;;;;14.10;99.90;;;;;;5072133;28;20011;-68
2022/05/21 02:44:54;;;;;;;;;;;14.20;99.90;;;;;;5049704;28;20351;-69
2022/05/21 02:47:19;;;;;;;;;;;14.20;99.90;;;;;;5049355;28;20007;-68
2022/05/21 02:49:45;;;;;;;;;;;14.20;99.90;;;;;;5049359;28;19909;-68
2022/05/21 02:52:10;;;;;;;;;;;14.10;99.90;;;;;;5049488;28;19999;-68
2022/05/21 02:54:36;;;;;;;;;;;14.20;99.90;;;;;;5049795;28;19978;-68
2022/05/21 02:57:01;;;;;;;;;;;14.20;99.90;;;;;;5049602;28;19912;-68
2022/05/21 02:59:28;;;;;;;;;;;14.20;99.90;;;;;;5052325;28;19928;-68
2022/05/21 03:01:54;;;;;;;;;;;14.30;99.90;;;;;;5053634;28;19963;-68
2022/05/21 03:04:19;;;;;;;;;;;14.40;99.90;;;;;;5053606;28;19921;-68
2022/05/21 03:06:45;;;;;;;;;;;14.40;99.90;;;;;;5053615;28;19912;-68
2022/05/21 03:11:54;;;;;;;;;;;14.30;99.90;;;;;;5053300;28;20004;-68
2022/05/21 03:14:19;;;;;;;;;;;14.30;99.90;;;;;;5055102;28;19948;-68
2022/05/21 03:16:45;;;;;;;;;;;14.30;99.90;;;;;;5058670;28;20071;-69
2022/05/21 03:19:10;;;;;;;;;;;14.30;99.90;;;;;;5058201;28;19920;-67
2022/05/21 03:21:36;;;;;;;;;;;14.30;99.90;;;;;;5075519;28;20487;-69
2022/05/21 03:24:01;;;;;;;;;;;14.30;99.90;;;;;;5075674;28;20262;-68
2022/05/21 03:26:26;;;;;;;;;;;14.30;99.90;;;;;;5075450;28;19915;-68
2022/05/21 03:28:52;;;;;;;;;;;14.30;99.90;;;;;;5075283;28;19913;-68
2022/05/21 03:31:17;;;;;;;;;;;14.30;99.90;;;;;;5073307;28;19937;-68
2022/05/21 03:33:43;;;;;;;;;;;14.20;99.90;;;;;;5075343;28;19916;-67
2022/05/21 03:36:08;;;;;;;;;;;14.30;99.90;;;;;;5073858;28;19908;-68
2022/05/21 03:38:34;;;;;;;;;;;14.30;99.90;;;;;;5075296;28;19908;-68
2022/05/21 03:41:00;;;;;;;;;;;14.30;99.90;;;;;;5073231;28;19924;-67
2022/05/21 03:43:26;;;;;;;;;;;14.30;99.90;;;;;;5074592;28;19915;-68
2022/05/21 03:45:51;;;;;;;;;;;14.30;99.90;;;;;;5074970;28;19909;-68
2022/05/21 03:48:17;;;;;;;;;;;14.40;99.90;;;;;;5075095;28;19908;-68
2022/05/21 03:50:43;;;;;;;;;;;14.50;99.90;;;;;;5073096;28;20014;-68
2022/05/21 03:53:09;;;;;;;;;;;14.50;99.90;;;;;;5075012;28;19909;-67
2022/05/21 03:55:35;;;;;;;;;;;14.50;99.90;;;;;;5075199;28;19948;-68
2022/05/21 03:58:00;;;;;;;;;;;14.40;99.90;;;;;;5074681;28;20404;-68
2022/05/21 04:00:26;;;;;;;;;;;14.40;99.90;;;;;;5074608;28;20014;-67
2022/05/21 04:02:51;;;;;;;;;;;14.40;99.90;;;;;;5072935;28;19913;-69
2022/05/21 04:05:17;;;;;;;;;;;14.40;99.90;;;;;;5074906;28;19962;-68
2022/05/21 04:07:42;;;;;;;;;;;14.40;99.90;;;;;;5074671;28;20258;-68
2022/05/21 04:10:08;;;;;;;;;;;14.40;99.90;;;;;;5073943;28;19909;-68
2022/05/21 04:12:34;;;;;;;;;;;14.40;99.90;;;;;;5072767;28;19924;-68
2022/05/21 04:14:59;;;;;;;;;;;14.40;99.90;;;;;;5073909;28;19912;-68
2022/05/21 04:17:25;;;;;;;;;;;14.30;99.90;;;;;;5074400;28;19912;-67
2022/05/21 04:19:50;;;;;;;;;;;14.20;99.90;;;;;;5074240;28;19935;-68
2022/05/21 04:22:15;;;;;;;;;;;14.20;99.90;;;;;;5074327;28;19912;-68
2022/05/21 04:24:41;;;;;;;;;;;14.20;99.90;;;;;;5094985;22;19924;-69
2022/05/21 04:27:09;;;;;;;;;;;14.20;99.90;;;;;;5066410;28;19909;-70
2022/05/21 04:29:35;;;;;;;;;;;14.20;99.90;;;;;;5077534;28;19908;-68
2022/05/21 04:32:01;;;;;;;;;;;14.20;99.90;;;;;;5114469;28;19908;-67
2022/05/21 04:34:26;;;;;;;;;;;14.30;99.90;;;;;;5097392;28;20206;-68
2022/05/21 04:36:52;;;;;;;;;;;14.40;99.90;;;;;;5093486;28;19917;-67
2022/05/21 04:39:17;;;;;;;;;;;14.40;99.90;;;;;;5063577;28;19934;-68
2022/05/21 04:41:43;;;;;;;;;;;14.40;99.90;;;;;;5055166;28;19908;-69
2022/05/21 04:44:09;;;;;;;;;;;14.30;99.90;;;;;;5054908;28;19909;-69
2022/05/21 04:46:35;;;;;;;;;;;14.30;99.90;;;;;;5053833;28;19913;-69
2022/05/21 04:49:01;;;;;;;;;;;14.30;99.90;;;;;;5054439;28;19987;-69
2022/05/21 04:51:26;;;;;;;;;;;14.30;99.90;;;;;;5053910;28;20404;-69
2022/05/21 04:53:52;;;;;;;;;;;14.30;99.90;;;;;;5054072;28;19940;-68
2022/05/21 04:56:18;;;;;;;;;;;14.40;99.90;;;;;;5055168;28;19921;-68
2022/05/21 04:58:43;;;;;;;;;;;14.30;99.90;;;;;;5054070;28;19908;-69
2022/05/21 05:01:09;;;;;;;;;;;14.10;99.90;;;;;;5052298;28;19960;-69
2022/05/21 05:03:34;;;;;;;;;;;14.20;99.90;;;;;;5053988;28;20273;-69
2022/05/21 05:06:00;;;;;;;;;;;14.00;99.90;;;;;;5054006;28;19912;-69
2022/05/21 05:08:25;;;;;;;;;;;14.00;99.90;;;;;;5053668;28;19916;-69
2022/05/21 05:10:51;;;;;;;;;;;14.10;99.90;;;;;;5053412;28;20069;-68
2022/05/21 05:13:18;;;;;;;;;;;14.20;99.90;;;;;;5054355;28;19944;-69
2022/05/21 05:15:44;;;;;;;;;;;14.00;99.90;;;;;;5053619;28;20293;-69
2022/05/21 05:18:11;;;;;;;;;;;14.10;99.90;;;;;;5053028;28;20230;-69
2022/05/21 05:20:37;;;;;;;;;;;14.20;99.90;;;;;;5052064;28;19913;-70
2022/05/21 05:23:03;;;;;;;;;;;14.10;99.90;;;;;;5053669;28;19936;-70
2022/05/21 05:25:29;;;;;;;;;;;13.90;99.90;;;;;;5053484;28;20374;-69
2022/05/21 05:27:54;;;;;;;;;;;14.00;99.90;;;;;;5054364;28;19913;-69
2022/05/21 05:30:20;;;;;;;;;;;14.10;99.90;;;;;;5052921;28;19909;-69
2022/05/21 05:32:46;;;;;;;;;;;14.30;99.90;;;;;;5053662;28;19958;-69
2022/05/21 05:35:12;;;;;;;;;;;14.30;99.90;;;;;;5055261;28;19923;-69
2022/05/21 05:37:37;;;;;;;;;;;14.10;99.90;;;;;;5053878;28;19919;-71
2022/05/21 05:40:04;;;;;;;;;;;14.20;99.90;;;;;;5053235;28;20299;-70
2022/05/21 05:42:29;;;;;;;;;;;14.30;99.90;;;;;;5054587;28;20208;-70
2022/05/21 05:44:55;;;;;;;;;;;14.30;99.90;;;;;;5054530;28;19999;-70
2022/05/21 05:47:20;;;;;;;;;;;14.40;99.90;;;;;;5054807;28;19920;-72
2022/05/21 05:49:46;;;;;;;;;;;14.50;99.90;;;;;;5055067;28;19931;-69
2022/05/21 05:52:11;;;;;;;;;;;14.60;99.90;;;;;;5055608;28;19909;-70
2022/05/21 05:54:37;;;;;;;;;;;14.70;99.90;;;;;;5054165;28;19909;-69
2022/05/21 05:57:03;;;;;;;;;;;14.80;99.90;;;;;;5053335;28;20366;-70
2022/05/21 06:04:05;;;;;;;;;;;14.80;99.90;;;;;;5072380;28;19935;-70
2022/05/21 06:06:31;;;;;;;;;;;15.00;99.90;;;;;;5068278;28;20413;-69
2022/05/21 06:08:57;;;;;;;;;;;15.20;99.90;;;;;;5051398;28;19909;-69
2022/05/21 06:11:22;;;;;;;;;;;15.20;99.90;;;;;;5053221;28;20384;-70
2022/05/21 06:13:48;;;;;;;;;;;14.90;99.90;;;;;;5065980;28;19909;-70
2022/05/21 06:16:15;;;;;;;;;;;14.90;99.90;;;;;;5062264;28;19909;-70
2022/05/21 06:18:41;;;;;;;;;;;15.10;99.90;;;;;;5081605;28;19913;-70
2022/05/21 06:21:07;;;;;;;;;;;15.20;99.90;;;;;;5091921;28;19913;-68
2022/05/21 06:23:32;;;;;;;;;;;15.30;99.90;;;;;;5077664;28;19924;-70
2022/05/21 06:26:00;;;;;;;;;;;15.20;99.90;;;;;;5073270;28;19962;-70
2022/05/21 06:28:28;;;;;;;;;;;15.30;99.90;;;;;;5078179;28;19928;-70
2022/05/21 06:30:54;;;;;;;;;;;15.40;99.90;;;;;;5096999;28;19935;-70
2022/05/21 06:33:25;;;;;;;;;;;15.40;99.90;;;;;;5096617;28;20341;-69
2022/05/21 06:36:00;;;;;;;;;;;15.50;99.90;;;;;;5088152;28;19913;-70
2022/05/21 06:38:25;;;;;;;;;;;15.30;99.90;;;;;;5052390;28;19909;-69
2022/05/21 06:40:51;;;;;;;;;;;15.30;99.90;;;;;;5051480;28;19910;-71
2022/05/21 06:43:16;;;;;;;;;;;15.20;99.90;;;;;;5051423;28;19917;-70
2022/05/21 06:45:42;;;;;;;;;;;15.30;99.90;;;;;;5052618;28;19955;-70
2022/05/21 06:48:08;;;;;;;;;;;15.30;99.90;;;;;;5054682;28;19924;-71
2022/05/21 06:50:33;;;;;;;;;;;15.20;99.90;;;;;;5048398;28;19925;-70
2022/05/21 06:52:59;;;;;;;;;;;15.30;99.90;;;;;;5065856;28;19913;-69
2022/05/21 06:55:24;;;;;;;;;;;15.20;99.90;;;;;;5072260;28;20358;-69
2022/05/21 06:57:50;;;;;;;;;;;15.30;99.90;;;;;;5060137;28;20307;-69
2022/05/21 07:00:17;;;;;;;;;;;15.20;99.90;;;;;;5079157;28;20373;-69
2022/05/21 07:02:43;;;;;;;;;;;15.10;99.90;;;;;;5086425;28;19999;-69
2022/05/21 07:07:53;;;;;;;;;;;15.10;99.90;;;;;;5078670;28;19935;-70
2022/05/21 07:10:21;;;;;;;;;;;15.10;99.90;;;;;;5084684;28;19896;-68
2022/05/21 07:12:47;;;;;;;;;;;15.10;99.90;;;;;;5091559;28;19996;-67
2022/05/21 07:15:13;;;;;;;;;;;15.20;99.90;;;;;;5084830;28;19920;-69
2022/05/21 07:17:38;;;;;;;;;;;15.30;99.90;;;;;;5068874;28;19940;-70
2022/05/21 07:20:05;;;;;;;;;;;15.30;99.90;;;;;;5070357;28;19971;-69
2022/05/21 07:22:31;;;;;;;;;;;15.30;99.90;;;;;;5077496;28;19929;-68
2022/05/21 07:24:56;;;;;;;;;;;15.30;99.90;;;;;;5065353;28;20309;-69
2022/05/21 07:27:23;;;;;;;;;;;15.40;99.90;;;;;;5073076;28;20009;-70
2022/05/21 07:29:48;;;;;;;;;;;15.40;99.90;;;;;;5082819;28;19971;-71
2022/05/21 07:32:15;;;;;;;;;;;15.50;99.90;;;;;;5084263;28;20336;-70
2022/05/21 07:34:41;;;;;;;;;;;15.50;99.90;;;;;;5071254;28;20285;-70
2022/05/21 07:37:06;;;;;;;;;;;15.40;99.90;;;;;;5084099;28;19908;-71
2022/05/21 07:39:32;;;;;;;;;;;15.60;99.90;;;;;;5083874;28;19908;-71
2022/05/21 07:41:57;;;;;;;;;;;15.60;99.90;;;;;;5089973;28;20325;-71
2022/05/21 07:44:23;;;;;;;;;;;15.70;99.90;;;;;;5062475;28;19930;-71
2022/05/21 07:46:49;;;;;;;;;;;15.60;99.90;;;;;;5082778;28;19908;-70
2022/05/21 07:49:14;;;;;;;;;;;15.70;99.90;;;;;;5084351;28;19909;-71
2022/05/21 07:51:39;;;;;;;;;;;15.60;99.90;;;;;;5076861;28;19969;-70
2022/05/21 07:54:05;;;;;;;;;;;15.60;99.90;;;;;;5071740;28;19913;-70
2022/05/21 07:56:31;;;;;;;;;;;15.60;99.90;;;;;;5100651;28;20065;-69
2022/05/21 07:58:57;;;;;;;;;;;15.60;99.90;;;;;;5094456;28;19908;-69
2022/05/21 08:01:22;;;;;;;;;;;15.60;99.90;;;;;;5089596;28;19908;-69
2022/05/21 08:03:48;;;;;;;;;;;15.50;99.90;;;;;;5087328;28;19939;-69
2022/05/21 08:06:14;;;;;;;;;;;15.50;99.90;;;;;;5104315;28;19908;-70
2022/05/21 08:08:39;;;;;;;;;;;15.60;99.90;;;;;;5080988;28;20329;-69
2022/05/21 08:11:04;;;;;;;;;;;15.70;99.90;;;;;;5084104;28;19909;-68
2022/05/21 08:13:30;;;;;;;;;;;15.60;99.90;;;;;;5081665;28;19912;-70
2022/05/21 08:15:56;;;;;;;;;;;15.70;99.90;;;;;;5076972;28;19995;-69
2022/05/21 08:18:21;;;;;;;;;;;16.00;99.90;;;;;;5090278;28;20053;-70
2022/05/21 08:20:47;;;;;;;;;;;16.30;99.90;;;;;;5072606;28;19912;-69
2022/05/21 08:28:43;;;;;;;;;;;16.50;99.90;;;;;;5078738;28;20041;-69
2022/05/21 08:31:08;;;;;;;;;;;16.70;99.90;;;;;;5082095;28;20371;-69
2022/05/21 08:33:33;;;;;;;;;;;16.60;99.90;;;;;;5066956;28;20332;-69
2022/05/21 08:35:59;;;;;;;;;;;16.60;99.90;;;;;;5081440;28;20400;-69
2022/05/21 08:38:24;;;;;;;;;;;16.70;99.90;;;;;;5088832;28;19987;-68
2022/05/21 08:40:54;;;;;;;;;;;16.50;99.90;;;;;;5080737;28;19948;-67
2022/05/21 08:43:19;;;;;;;;;;;16.50;99.90;;;;;;5081282;28;19934;-69
2022/05/21 08:45:56;;;;;;;;;;;16.50;99.90;;;;;;5088384;28;20420;-68
2022/05/21 08:48:23;;;;;;;;;;;16.60;99.90;;;;;;5075473;28;19912;-67
2022/05/21 08:50:50;;;;;;;;;;;16.80;99.90;;;;;;5085244;28;19959;-67
2022/05/21 08:53:17;;;;;;;;;;;17.00;99.90;;;;;;5084198;28;19915;-67
2022/05/21 08:55:44;;;;;;;;;;;16.90;99.90;;;;;;5078147;28;19913;-65
2022/05/21 08:58:17;;;;;;;;;;;16.90;99.90;;;;;;5070058;28;19912;-68
2022/05/21 09:00:44;;;;;;;;;;;17.10;99.90;;;;;;5086640;28;19908;-67
2022/05/21 09:03:11;;;;;;;;;;;17.20;99.90;;;;;;5083019;28;19923;-66
2022/05/21 09:05:38;;;;;;;;;;;16.90;99.90;;;;;;5078460;28;20376;-68
2022/05/21 09:08:06;;;;;;;;;;;16.90;99.90;;;;;;5061894;28;19996;-66
2022/05/21 09:10:50;;;;;;;;;;;16.80;99.90;;;;;;5087685;28;19909;-67
2022/05/21 09:13:36;;;;;;;;;;;16.80;99.90;;;;;;5084065;28;19908;-66
2022/05/21 09:18:46;;;;;;;;;;;16.90;99.90;;;;;;5085234;28;19969;-66
2022/05/21 09:21:16;;;;;;;;;;;17.10;99.90;;;;;;5072093;28;20388;-66
2022/05/21 09:23:49;;;;;;;;;;;17.10;99.90;;;;;;5087298;28;19964;-66
2022/05/21 09:26:15;;;;;;;;;;;17.30;99.90;;;;;;5075822;28;19913;-66
2022/05/21 09:28:41;;;;;;;;;;;17.40;99.90;;;;;;5078100;28;19911;-66
2022/05/21 09:31:07;;;;;;;;;;;17.40;99.90;;;;;;5069133;28;20368;-68
2022/05/21 09:33:33;;;;;;;;;;;17.30;99.90;;;;;;5080578;28;19915;-68
2022/05/21 09:35:59;;;;;;;;;;;17.30;99.90;;;;;;5084824;28;19987;-68
2022/05/21 09:38:25;;;;;;;;;;;17.40;99.90;;;;;;5088898;28;19961;-67
2022/05/21 09:41:03;;;;;;;;;;;17.60;99.90;;;;;;5070874;28;20258;-67
2022/05/21 09:46:26;;;;;;;;;;;17.80;99.90;;;;;;5089128;28;19960;-67
2022/05/21 09:48:53;;;;;;;;;;;17.70;99.90;;;;;;5078352;28;19908;-68
2022/05/21 09:51:29;;;;;;;;;;;17.50;99.90;;;;;;5087034;28;19998;-67
2022/05/21 09:53:55;;;;;;;;;;;17.40;99.90;;;;;;5073894;28;20428;-68
2022/05/21 09:56:22;;;;;;;;;;;17.50;99.90;;;;;;5073903;28;19940;-67
2022/05/21 09:58:54;;;;;;;;;;;17.60;99.90;;;;;;5086526;28;19909;-69
2022/05/21 10:01:36;;;;;;;;;;;17.70;99.90;;;;;;5067068;28;19940;-68
2022/05/21 10:04:10;;;;;;;;;;;17.60;99.90;;;;;;5083716;28;19995;-70
2022/05/21 10:06:40;;;;;;;;;;;17.20;99.90;;;;;;5059767;28;19908;-68
2022/05/21 10:12:09;;;;;;;;;;;17.10;99.90;;;;;;5072371;28;20296;-69
2022/05/21 10:14:40;;;;;;;;;;;17.10;99.90;;;;;;5059420;28;19908;-68
2022/05/21 10:17:08;;;;;;;;;;;17.30;99.90;;;;;;5083668;28;20289;-69
2022/05/21 10:19:37;;;;;;;;;;;17.50;99.90;;;;;;5084037;28;19909;-67
2022/05/21 10:22:18;;;;;;;;;;;17.70;99.90;;;;;;5071772;28;21472;-70
2022/05/21 10:24:44;;;;;;;;;;;18.00;99.90;;;;;;5080546;22;19960;-68
2022/05/21 10:27:28;;;;;;;;;;;18.10;99.90;;;;;;5071384;28;19940;-68
2022/05/21 10:30:01;;;;;;;;;;;18.20;99.90;;;;;;5071125;28;19972;-67
2022/05/21 10:32:36;;;;;;;;;;;18.10;99.90;;;;;;5071481;28;19916;-68
2022/05/21 10:35:27;;;;;;;;;;;17.90;99.90;;;;;;5059340;28;20481;-69
2022/05/21 10:37:52;;;;;;;;;;;17.60;99.90;;;;;;5066463;28;19919;-68
2022/05/21 10:40:20;;;;;;;;;;;17.40;99.90;;;;;;5068010;28;20365;-68
2022/05/21 10:42:52;;;;;;;;;;;17.80;99.90;;;;;;5071691;28;19919;-68
2022/05/21 10:45:25;;;;;;;;;;;18.00;99.90;;;;;;5071830;28;19916;-68
2022/05/21 10:47:59;;;;;;;;;;;17.90;99.90;;;;;;5070455;28;19917;-68
2022/05/21 10:50:45;;;;;;;;;;;17.90;99.90;;;;;;5074543;28;19909;-70
2022/05/21 10:53:37;;;;;;;;;;;18.00;99.90;;;;;;5075602;28;19985;-68
2022/05/21 10:56:09;;;;;;;;;;;18.20;99.90;;;;;;5039325;28;19909;-69
2022/05/21 10:58:58;;;;;;;;;;;18.30;99.90;;;;;;5060580;28;19920;-69
2022/05/21 11:01:36;;;;;;;;;;;18.20;99.90;;;;;;5075113;28;19909;-68
2022/05/21 11:04:12;;;;;;;;;;;18.40;99.90;;;;;;5075222;28;19912;-69
2022/05/21 11:06:56;;;;;;;;;;;18.40;99.90;;;;;;5059610;28;20286;-69
2022/05/21 11:09:30;;;;;;;;;;;18.60;99.90;;;;;;5068863;28;20337;-70
2022/05/21 11:12:01;;;;;;;;;;;18.80;99.90;;;;;;5075884;28;19999;-70
2022/05/21 11:14:37;;;;;;;;;;;18.80;99.20;;;;;;5076419;28;19916;-70
2022/05/21 11:17:21;;;;;;;;;;;18.60;99.50;;;;;;5075751;28;19999;-69
2022/05/21 11:20:05;;;;;;;;;;;18.50;99.10;;;;;;5073791;28;19934;-69
2022/05/21 11:22:36;;;;;;;;;;;18.60;99.00;;;;;;5075363;28;20401;-71
2022/05/21 11:25:09;;;;;;;;;;;18.80;98.70;;;;;;5074986;28;19958;-69
2022/05/21 11:27:39;;;;;;;;;;;18.80;98.40;;;;;;5075154;28;19908;-70
2022/05/21 11:30:06;;;;;;;;;;;19.00;98.50;;;;;;5072862;28;19959;-69
2022/05/21 11:38:23;;;;;;;;;;;19.10;97.50;;;;;;5069148;28;19923;-69
2022/05/21 11:41:24;;;;;;;;;;;19.20;97.10;;;;;;5066672;28;19920;-70
2022/05/21 11:43:57;;;;;;;;;;;19.30;97.10;;;;;;5068812;28;20472;-68
2022/05/21 11:46:36;;;;;;;;;;;19.50;96.60;;;;;;5063638;28;19924;-70
2022/05/21 11:49:20;;;;;;;;;;;19.70;96.30;;;;;;5075161;28;20396;-69
2022/05/21 11:51:46;;;;;;;;;;;19.50;95.70;;;;;;5073495;28;19916;-67
2022/05/21 11:54:31;;;;;;;;;;;19.50;96.10;;;;;;5073879;28;19915;-69
2022/05/21 11:57:02;;;;;;;;;;;19.80;96.10;;;;;;5060646;28;19987;-69
2022/05/21 11:59:47;;;;;;;;;;;19.80;95.00;;;;;;5074401;28;20372;-69
2022/05/21 12:02:18;;;;;;;;;;;19.80;95.60;;;;;;5061481;28;20003;-68
2022/05/21 12:04:43;;;;;;;;;;;20.00;94.60;;;;;;5073949;28;20400;-71
2022/05/21 12:07:12;;;;;;;;;;;20.10;94.50;;;;;;5073787;28;19908;-70
2022/05/21 12:09:56;;;;;;;;;;;20.10;94.00;;;;;;5073345;28;20377;-70
2022/05/21 12:12:23;;;;;;;;;;;20.10;94.20;;;;;;5066578;28;19919;-69
2022/05/21 12:14:53;;;;;;;;;;;20.30;93.50;;;;;;5073725;28;19954;-70
2022/05/21 12:17:42;;;;;;;;;;;20.20;93.70;;;;;;5073746;28;19947;-70
2022/05/21 12:20:11;;;;;;;;;;;20.40;93.30;;;;;;5070129;28;19958;-69
2022/05/21 12:22:44;;;;;;;;;;;20.30;93.90;;;;;;5071120;28;19920;-68
2022/05/21 12:25:14;;;;;;;;;;;20.60;93.20;;;;;;5060021;28;19963;-69
2022/05/21 12:27:49;;;;;;;;;;;20.60;93.70;;;;;;5065753;28;20379;-69
2022/05/21 12:30:20;;;;;;;;;;;20.60;93.80;;;;;;5073431;28;20335;-70
2022/05/21 12:32:47;;;;;;;;;;;20.70;93.40;;;;;;5072770;28;19920;-69
2022/05/21 12:35:23;;;;;;;;;;;21.00;93.50;;;;;;5073504;28;19921;-69
2022/05/21 12:37:51;;;;;;;;;;;21.20;92.20;;;;;;5073369;28;20344;-74
2022/05/21 12:40:16;;;;;;;;;;;21.30;91.80;;;;;;5073792;28;19908;-69
2022/05/21 12:42:47;;;;;;;;;;;21.10;91.70;;;;;;5080095;28;19916;-69
2022/05/21 12:45:14;;;;;;;;;;;21.10;91.60;;;;;;5071614;28;19913;-69
2022/05/21 12:47:42;;;;;;;;;;;20.80;91.30;;;;;;5068230;28;20393;-70
2022/05/21 12:50:15;;;;;;;;;;;20.80;91.80;;;;;;5069993;28;20433;-71
2022/05/21 12:52:52;;;;;;;;;;;20.80;92.00;;;;;;5058356;28;19915;-70
2022/05/21 12:55:31;;;;;;;;;;;21.00;92.10;;;;;;5073933;28;20358;-70
2022/05/21 12:57:57;;;;;;;;;;;20.90;91.80;;;;;;5063176;28;19939;-70
2022/05/21 13:00:25;;;;;;;;;;;20.60;91.30;;;;;;5070083;28;19918;-70
2022/05/21 13:02:52;;;;;;;;;;;20.40;91.50;;;;;;5072958;28;19912;-72
2022/05/21 13:05:25;;;;;;;;;;;20.50;91.50;;;;;;5069904;28;19919;-71
2022/05/21 13:07:52;;;;;;;;;;;20.60;92.80;;;;;;5070109;28;19995;-71
2022/05/21 13:10:25;;;;;;;;;;;20.70;92.70;;;;;;5062163;28;19919;-70
2022/05/21 13:12:52;;;;;;;;;;;20.80;91.50;;;;;;5073257;28;19909;-70
2022/05/21 13:15:21;;;;;;;;;;;20.90;91.40;;;;;;5072508;28;19912;-71
2022/05/21 13:18:05;;;;;;;;;;;20.90;91.40;;;;;;5066013;28;19909;-71
2022/05/21 13:20:39;;;;;;;;;;;20.60;90.80;;;;;;5069224;28;19912;-70
2022/05/21 13:23:05;;;;;;;;;;;20.20;91.50;;;;;;5061337;28;19913;-74
2022/05/21 13:25:30;;;;;;;;;;;20.10;91.80;;;;;;5059328;28;20408;-70
2022/05/21 13:27:56;;;;;;;;;;;20.40;91.60;;;;;;5065433;28;19912;-70
2022/05/21 13:30:27;;;;;;;;;;;20.00;91.40;;;;;;5068576;28;19958;-70
2022/05/21 13:32:57;;;;;;;;;;;20.10;91.90;;;;;;5068620;28;19923;-70
2022/05/21 13:35:25;;;;;;;;;;;20.60;91.40;;;;;;5072900;28;19962;-70
2022/05/21 13:37:51;;;;;;;;;;;20.90;89.70;;;;;;5072670;28;20483;-70
2022/05/21 13:40:21;;;;;;;;;;;20.20;90.50;;;;;;5064736;28;19962;-70
2022/05/21 13:42:48;;;;;;;;;;;19.60;91.60;;;;;;5056706;28;19965;-70
2022/05/21 13:45:24;;;;;;;;;;;19.50;92.10;;;;;;5072316;28;20013;-70
2022/05/21 13:47:50;;;;;;;;;;;19.70;92.30;;;;;;5073656;28;20042;-71
2022/05/21 13:50:22;;;;;;;;;;;20.00;92.20;;;;;;5071005;28;19916;-71
2022/05/21 13:52:47;;;;;;;;;;;20.00;91.90;;;;;;5072785;28;19915;-70
2022/05/21 13:55:13;;;;;;;;;;;20.00;92.10;;;;;;5072634;28;19913;-70
2022/05/21 13:57:40;;;;;;;;;;;20.10;92.20;;;;;;5072757;28;19943;-71
2022/05/21 14:00:12;;;;;;;;;;;20.20;92.10;;;;;;5072091;28;19916;-70
2022/05/21 14:02:42;;;;;;;;;;;20.30;92.30;;;;;;5073491;28;19980;-71
2022/05/21 14:05:22;;;;;;;;;;;20.60;91.30;;;;;;5073361;28;19909;-71
2022/05/21 14:07:51;;;;;;;;;;;20.80;90.80;;;;;;5063929;28;20344;-70
2022/05/21 14:10:28;;;;;;;;;;;20.80;90.40;;;;;;5052663;28;19909;-72
2022/05/21 14:12:54;;;;;;;;;;;20.90;90.50;;;;;;5052518;28;20377;-70
2022/05/21 14:15:28;;;;;;;;;;;21.10;90.20;;;;;;5052600;28;20324;-71
2022/05/21 14:17:55;;;;;;;;;;;21.30;90.00;;;;;;5062617;28;20384;-70
2022/05/21 14:20:21;;;;;;;;;;;21.60;88.60;;;;;;5052609;28;19983;-70
2022/05/21 14:22:47;;;;;;;;;;;21.70;88.30;;;;;;5053042;28;19921;-68
2022/05/21 14:25:15;;;;;;;;;;;21.80;88.50;;;;;;5074649;28;19951;-71
2022/05/21 14:27:54;;;;;;;;;;;22.00;87.80;;;;;;5075036;28;20451;-71
2022/05/21 14:30:27;;;;;;;;;;;21.20;89.00;;;;;;5072859;28;19913;-68
2022/05/21 14:32:53;;;;;;;;;;;21.20;90.40;;;;;;5074597;28;19999;-69
2022/05/21 14:35:21;;;;;;;;;;;21.60;90.00;;;;;;5074879;28;19951;-68
2022/05/21 14:37:51;;;;;;;;;;;21.10;89.40;;;;;;5073985;28;19918;-68
2022/05/21 14:40:16;;;;;;;;;;;20.70;90.20;;;;;;5074421;28;20384;-68
2022/05/21 14:42:42;;;;;;;;;;;21.00;90.40;;;;;;5075071;28;19913;-68
2022/05/21 14:45:20;;;;;;;;;;;21.20;90.10;;;;;;5074492;28;19985;-70
2022/05/21 14:47:52;;;;;;;;;;;21.50;89.80;;;;;;5061667;28;19920;-69
2022/05/21 14:53:02;;;;;;;;;;;20.90;89.80;;;;;;5055943;28;20384;-70
2022/05/21 14:55:28;;;;;;;;;;;21.10;90.30;;;;;;5055717;28;19909;-71
2022/05/21 14:57:53;;;;;;;;;;;20.90;89.80;;;;;;5079274;28;20374;-70
2022/05/21 15:00:20;;;;;;;;;;;20.80;90.20;;;;;;5074557;28;19919;-70
2022/05/21 15:02:45;;;;;;;;;;;21.10;89.80;;;;;;5075548;28;19970;-71
2022/05/21 15:05:11;;;;;;;;;;;21.50;89.40;;;;;;5075833;28;19912;-71
2022/05/21 15:07:39;;;;;;;;;;;21.90;87.80;;;;;;5073962;28;19930;-71
2022/05/21 15:10:06;;;;;;;;;;;21.90;86.30;;;;;;5076077;28;19920;-70